Time;durP1;ratioP1;P1;durP2;ratioP2;P2;SDS_P1;SDS_P2;PMS_P1;PMS_P2;Temp;Humidity;BMP_temperature;BMP_pressure;BME280_temperature;BME280_humidity;BME280_pressure;Samples;Min_cycle;Max_cycle;Signal;HPM_P1;HPM_P2
2022/02/14 00:00:37;;;;;;;16.15;6.35;;;;;;;;;;5043528;28;20483;-71
2022/02/14 00:03:03;;;;;;;13.75;8.35;;;;;;;;;;5043954;28;20039;-71
2022/02/14 00:05:31;;;;;;;13.25;6.05;;;;;;;;;;5043740;28;20044;-71
2022/02/14 00:07:57;;;;;;;15.20;6.47;;;;;;;;;;5044078;28;20044;-71
2022/02/14 00:10:22;;;;;;;10.18;4.97;;;;;;;;;;5025998;28;20037;-71
2022/02/14 00:12:48;;;;;;;13.57;6.55;;;;;;;;;;5043967;28;20452;-71
2022/02/14 00:15:14;;;;;;;13.88;5.75;;;;;;;;;;5025367;28;20068;-71
2022/02/14 00:17:40;;;;;;;15.73;7.72;;;;;;;;;;5025946;28;20044;-71
2022/02/14 00:20:06;;;;;;;9.18;5.35;;;;;;;;;;5043245;28;20029;-71
2022/02/14 00:22:35;;;;;;;9.48;5.28;;;;;;;;;;5043553;28;20028;-71
2022/02/14 00:25:00;;;;;;;16.25;6.35;;;;;;;;;;5043515;28;20029;-71
2022/02/14 00:27:25;;;;;;;12.13;4.47;;;;;;;;;;5043288;28;20116;-70
2022/02/14 00:29:51;;;;;;;15.10;6.00;;;;;;;;;;5043235;28;20040;-71
2022/02/14 00:32:20;;;;;;;9.48;4.82;;;;;;;;;;5043651;28;20056;-71
2022/02/14 00:34:45;;;;;;;14.30;6.90;;;;;;;;;;5043063;28;20060;-70
2022/02/14 00:37:12;;;;;;;16.92;7.30;;;;;;;;;;5043163;28;20077;-71
2022/02/14 00:39:38;;;;;;;12.90;4.72;;;;;;;;;;5043159;28;20026;-71
2022/02/14 00:42:03;;;;;;;7.03;4.30;;;;;;;;;;5025375;28;20037;-71
2022/02/14 00:44:30;;;;;;;13.90;6.82;;;;;;;;;;5042784;28;20029;-71
2022/02/14 00:46:56;;;;;;;14.55;7.38;;;;;;;;;;5043274;28;20089;-71
2022/02/14 00:49:21;;;;;;;15.95;7.82;;;;;;;;;;5043040;28;20026;-71
2022/02/14 00:51:46;;;;;;;10.77;4.68;;;;;;;;;;5042160;28;20385;-71
2022/02/14 00:54:12;;;;;;;11.52;5.38;;;;;;;;;;5025120;28;20037;-70
2022/02/14 00:56:37;;;;;;;13.98;6.97;;;;;;;;;;5042898;28;20021;-70
2022/02/14 00:59:03;;;;;;;9.93;5.05;;;;;;;;;;5043119;28;20030;-70
2022/02/14 01:01:29;;;;;;;12.18;5.93;;;;;;;;;;5043338;28;20079;-71
2022/02/14 01:03:54;;;;;;;15.02;7.45;;;;;;;;;;5042814;28;20064;-71
2022/02/14 01:06:20;;;;;;;13.65;6.38;;;;;;;;;;5042908;28;20026;-71
2022/02/14 01:08:45;;;;;;;12.85;6.68;;;;;;;;;;5042734;28;20064;-70
2022/02/14 01:11:11;;;;;;;16.58;6.82;;;;;;;;;;5043033;28;20021;-71
2022/02/14 01:13:37;;;;;;;10.68;5.75;;;;;;;;;;5042604;28;20025;-70
2022/02/14 01:16:03;;;;;;;15.85;5.50;;;;;;;;;;5042862;28;20061;-71
2022/02/14 01:18:29;;;;;;;12.90;6.55;;;;;;;;;;5042943;28;20060;-71
2022/02/14 01:20:54;;;;;;;12.65;6.18;;;;;;;;;;5041421;28;20029;-71
2022/02/14 01:23:20;;;;;;;15.57;5.75;;;;;;;;;;5042703;28;20026;-70
2022/02/14 01:25:45;;;;;;;8.98;4.45;;;;;;;;;;5042746;28;20029;-70
2022/02/14 01:28:10;;;;;;;10.05;5.20;;;;;;;;;;5025095;28;20116;-71
2022/02/14 01:30:36;;;;;;;6.32;2.83;;;;;;;;;;5057830;28;20117;-71
2022/02/14 01:33:01;;;;;;;7.55;3.40;;;;;;;;;;5042882;28;20022;-71
2022/02/14 01:35:28;;;;;;;19.40;7.88;;;;;;;;;;5024683;28;20025;-70
2022/02/14 01:37:53;;;;;;;14.93;6.28;;;;;;;;;;5042875;28;20116;-71
2022/02/14 01:40:19;;;;;;;16.25;8.07;;;;;;;;;;5042463;28;20025;-70
2022/02/14 01:42:45;;;;;;;10.60;6.15;;;;;;;;;;5042430;28;20571;-70
2022/02/14 01:45:11;;;;;;;14.43;6.68;;;;;;;;;;5042631;28;20041;-70
2022/02/14 01:47:37;;;;;;;12.90;6.38;;;;;;;;;;5042595;28;20030;-70
2022/02/14 01:50:04;;;;;;;9.38;5.25;;;;;;;;;;5042482;28;20041;-71
2022/02/14 01:52:35;;;;;;;4.97;2.92;;;;;;;;;;5024075;28;20029;-70
2022/02/14 01:55:03;;;;;;;15.52;6.65;;;;;;;;;;5024683;28;20053;-70
2022/02/14 01:57:29;;;;;;;12.43;6.55;;;;;;;;;;5042619;28;20033;-70
2022/02/14 01:59:55;;;;;;;6.25;3.42;;;;;;;;;;5042333;28;20112;-70
2022/02/14 02:02:20;;;;;;;14.35;6.22;;;;;;;;;;5043047;28;20026;-70
2022/02/14 02:04:46;;;;;;;12.93;4.10;;;;;;;;;;5045700;28;20026;-70
2022/02/14 02:07:13;;;;;;;11.40;5.90;;;;;;;;;;5046058;28;20043;-70
2022/02/14 02:09:41;;;;;;;13.27;6.35;;;;;;;;;;5028378;28;20107;-70
2022/02/14 02:12:28;;;;;;;10.50;5.90;;;;;;;;;;5046265;28;20033;-70
2022/02/14 02:14:56;;;;;;;12.40;5.88;;;;;;;;;;5045771;28;20065;-70
2022/02/14 02:17:23;;;;;;;10.35;5.20;;;;;;;;;;5045503;28;20620;-70
2022/02/14 02:19:49;;;;;;;9.30;4.90;;;;;;;;;;5045500;28;20037;-71
2022/02/14 02:22:14;;;;;;;10.80;5.47;;;;;;;;;;5045753;28;20730;-70
2022/02/14 02:24:54;;;;;;;8.65;4.55;;;;;;;;;;5027859;28;20038;-70
2022/02/14 02:27:25;;;;;;;13.10;5.50;;;;;;;;;;5027271;28;20106;-70
2022/02/14 02:29:55;;;;;;;14.18;5.85;;;;;;;;;;5027772;28;20040;-71
2022/02/14 02:32:21;;;;;;;6.85;4.40;;;;;;;;;;5045828;28;20029;-70
2022/02/14 02:34:47;;;;;;;15.02;6.88;;;;;;;;;;5045770;28;20118;-71
2022/02/14 02:37:15;;;;;;;13.55;6.30;;;;;;;;;;5027796;28;20045;-71
2022/02/14 02:39:41;;;;;;;15.20;6.97;;;;;;;;;;5044938;28;20535;-70
2022/02/14 02:42:08;;;;;;;13.43;6.60;;;;;;;;;;5045175;28;20057;-70
2022/02/14 02:44:35;;;;;;;11.98;4.95;;;;;;;;;;5027320;28;20030;-70
2022/02/14 02:47:06;;;;;;;13.23;6.38;;;;;;;;;;5045709;28;20085;-70
2022/02/14 02:49:32;;;;;;;17.52;6.00;;;;;;;;;;5044623;28;20064;-70
2022/02/14 02:51:58;;;;;;;9.90;4.78;;;;;;;;;;5045627;28;20025;-70
2022/02/14 02:54:25;;;;;;;14.35;6.45;;;;;;;;;;5045072;28;20026;-70
2022/02/14 02:56:52;;;;;;;14.18;6.38;;;;;;;;;;5045291;28;20037;-70
2022/02/14 02:59:17;;;;;;;17.00;5.90;;;;;;;;;;5044681;28;20056;-70
2022/02/14 03:01:43;;;;;;;14.48;6.43;;;;;;;;;;5045098;28;20033;-70
2022/02/14 03:04:11;;;;;;;12.32;5.95;;;;;;;;;;5060358;28;20021;-70
2022/02/14 03:06:38;;;;;;;17.92;6.45;;;;;;;;;;5045054;28;20056;-70
2022/02/14 03:09:07;;;;;;;13.05;6.45;;;;;;;;;;5045360;28;20033;-70
2022/02/14 03:11:33;;;;;;;16.98;6.90;;;;;;;;;;5045081;28;20089;-70
2022/02/14 03:14:00;;;;;;;15.57;7.13;;;;;;;;;;5045041;28;20132;-70
2022/02/14 03:16:27;;;;;;;12.82;6.10;;;;;;;;;;5044160;28;20089;-70
2022/02/14 03:18:55;;;;;;;15.10;7.03;;;;;;;;;;5044150;28;20287;-70
2022/02/14 03:21:21;;;;;;;16.05;5.80;;;;;;;;;;5045551;28;20080;-70
2022/02/14 03:23:50;;;;;;;21.08;5.60;;;;;;;;;;5044876;28;20524;-70
2022/02/14 03:26:17;;;;;;;13.73;5.50;;;;;;;;;;5045086;28;20051;-71
2022/02/14 03:28:44;;;;;;;11.18;5.47;;;;;;;;;;5044773;28;20036;-70
2022/02/14 03:31:11;;;;;;;16.30;5.88;;;;;;;;;;5045189;28;20128;-71
2022/02/14 03:33:37;;;;;;;8.10;4.28;;;;;;;;;;5044775;28;20029;-70
2022/02/14 03:36:03;;;;;;;13.52;5.47;;;;;;;;;;5044191;28;20481;-70
2022/02/14 03:38:28;;;;;;;12.38;5.88;;;;;;;;;;5026297;28;20037;-70
2022/02/14 03:40:53;;;;;;;14.35;6.50;;;;;;;;;;5044227;28;20064;-70
2022/02/14 03:43:19;;;;;;;12.32;6.25;;;;;;;;;;5044541;28;20052;-70
2022/02/14 03:45:45;;;;;;;17.70;6.32;;;;;;;;;;5044092;28;20047;-70
2022/02/14 03:48:10;;;;;;;15.82;6.82;;;;;;;;;;5043743;28;20032;-70
2022/02/14 03:50:36;;;;;;;14.10;6.68;;;;;;;;;;5025480;28;20033;-70
2022/02/14 03:53:02;;;;;;;11.95;5.95;;;;;;;;;;5026449;28;20087;-70
2022/02/14 03:55:27;;;;;;;12.43;6.35;;;;;;;;;;5043937;28;20381;-70
2022/02/14 03:57:53;;;;;;;13.63;6.75;;;;;;;;;;5044040;28;20029;-70
2022/02/14 04:00:20;;;;;;;18.63;6.72;;;;;;;;;;5025982;28;20030;-70
2022/02/14 04:02:46;;;;;;;13.68;6.70;;;;;;;;;;5026405;28;20120;-70
2022/02/14 04:05:13;;;;;;;14.18;6.78;;;;;;;;;;5026094;28;20138;-70
2022/02/14 04:07:38;;;;;;;13.18;5.97;;;;;;;;;;5043874;28;20112;-70
2022/02/14 04:10:06;;;;;;;10.20;5.82;;;;;;;;;;5043789;28;20057;-70
2022/02/14 04:12:31;;;;;;;17.13;6.95;;;;;;;;;;5026188;28;20079;-70
2022/02/14 04:14:57;;;;;;;16.00;6.70;;;;;;;;;;5043501;28;20416;-70
2022/02/14 04:17:24;;;;;;;11.95;6.00;;;;;;;;;;5026014;28;20105;-70
2022/02/14 04:19:49;;;;;;;17.58;7.30;;;;;;;;;;5042987;28;20032;-70
2022/02/14 04:22:15;;;;;;;11.75;5.72;;;;;;;;;;5043756;28;20030;-70
2022/02/14 04:24:40;;;;;;;12.23;6.80;;;;;;;;;;5043380;28;20497;-70
2022/02/14 04:27:06;;;;;;;11.80;5.97;;;;;;;;;;5025714;28;20025;-70
2022/02/14 04:29:31;;;;;;;10.63;5.75;;;;;;;;;;5025358;28;20025;-70
2022/02/14 04:31:57;;;;;;;13.68;6.53;;;;;;;;;;5041946;28;20435;-70
2022/02/14 04:34:22;;;;;;;11.50;5.70;;;;;;;;;;5043268;28;20029;-70
2022/02/14 04:36:49;;;;;;;17.13;7.75;;;;;;;;;;5043465;28;20639;-70
2022/02/14 04:39:15;;;;;;;14.90;5.90;;;;;;;;;;5043251;28;20081;-70
2022/02/14 04:41:41;;;;;;;17.63;7.32;;;;;;;;;;5043174;28;20036;-70
2022/02/14 04:44:07;;;;;;;14.90;7.10;;;;;;;;;;5025034;28;20080;-70
2022/02/14 04:46:32;;;;;;;16.52;6.45;;;;;;;;;;5043663;28;20038;-70
2022/02/14 04:48:58;;;;;;;15.82;7.72;;;;;;;;;;5043399;28;20075;-70
2022/02/14 04:51:25;;;;;;;16.95;6.82;;;;;;;;;;5043238;28;20683;-70
2022/02/14 04:53:51;;;;;;;13.82;6.32;;;;;;;;;;5042990;28;20033;-70
2022/02/14 04:56:16;;;;;;;18.83;8.05;;;;;;;;;;5043106;28;20038;-70
2022/02/14 04:58:42;;;;;;;12.77;5.72;;;;;;;;;;5057489;28;20029;-72
2022/02/14 05:01:07;;;;;;;14.32;7.43;;;;;;;;;;5041809;28;20071;-70
2022/02/14 05:03:32;;;;;;;19.42;7.97;;;;;;;;;;5043035;28;20085;-70
2022/02/14 05:05:58;;;;;;;16.77;8.10;;;;;;;;;;5042689;28;20038;-70
2022/02/14 05:08:23;;;;;;;13.20;7.25;;;;;;;;;;5042677;28;20072;-70
2022/02/14 05:10:48;;;;;;;14.75;6.95;;;;;;;;;;5057766;28;20075;-70
2022/02/14 05:13:14;;;;;;;13.82;7.07;;;;;;;;;;5025430;28;20029;-70
2022/02/14 05:15:39;;;;;;;18.67;8.07;;;;;;;;;;5042584;28;20029;-70
2022/02/14 05:18:05;;;;;;;19.00;8.80;;;;;;;;;;5042590;28;20044;-69
2022/02/14 05:20:31;;;;;;;20.35;8.75;;;;;;;;;;5042549;28;20038;-69
2022/02/14 05:22:56;;;;;;;20.25;9.18;;;;;;;;;;5024922;28;20033;-69
2022/02/14 05:25:22;;;;;;;18.45;8.43;;;;;;;;;;5042739;28;20033;-70
2022/02/14 05:27:47;;;;;;;14.90;8.30;;;;;;;;;;5025150;28;20037;-69
2022/02/14 05:30:12;;;;;;;17.80;8.68;;;;;;;;;;5042173;28;20041;-69
2022/02/14 05:32:38;;;;;;;16.60;8.82;;;;;;;;;;5042994;28;20079;-69
2022/02/14 05:35:04;;;;;;;16.50;8.23;;;;;;;;;;5042371;28;20106;-70
2022/02/14 05:37:29;;;;;;;17.80;7.97;;;;;;;;;;5042535;28;20358;-70
2022/02/14 05:39:54;;;;;;;21.38;8.05;;;;;;;;;;5027920;28;20044;-69
2022/02/14 05:42:20;;;;;;;12.02;7.10;;;;;;;;;;5046391;28;20032;-70
2022/02/14 05:44:45;;;;;;;20.42;8.63;;;;;;;;;;5028131;28;20536;-70
2022/02/14 05:47:11;;;;;;;18.15;7.50;;;;;;;;;;5028673;28;20112;-69
2022/02/14 05:49:37;;;;;;;14.82;7.78;;;;;;;;;;5028271;28;20132;-69
2022/02/14 05:52:03;;;;;;;11.55;5.70;;;;;;;;;;5046212;28;20089;-69
2022/02/14 05:54:29;;;;;;;18.70;8.68;;;;;;;;;;5046018;28;20030;-70
2022/02/14 05:56:55;;;;;;;24.65;10.13;;;;;;;;;;5046346;28;20106;-69
2022/02/14 05:59:20;;;;;;;16.27;7.07;;;;;;;;;;5045918;28;20026;-69
2022/02/14 06:01:45;;;;;;;24.25;9.68;;;;;;;;;;5061352;28;20476;-70
2022/02/14 06:04:12;;;;;;;20.25;9.85;;;;;;;;;;5027718;28;20030;-70
2022/02/14 06:06:38;;;;;;;16.52;7.95;;;;;;;;;;5046228;28;20030;-70
2022/02/14 06:09:04;;;;;;;14.02;6.07;;;;;;;;;;5045644;28;20477;-70
2022/02/14 06:11:29;;;;;;;19.42;9.20;;;;;;;;;;5046276;28;20026;-70
2022/02/14 06:13:55;;;;;;;21.77;10.00;;;;;;;;;;5027899;28;20056;-70
2022/02/14 06:16:20;;;;;;;16.27;7.88;;;;;;;;;;5028168;28;20029;-70
2022/02/14 06:18:46;;;;;;;16.15;8.10;;;;;;;;;;5046014;28;20059;-70
2022/02/14 06:21:11;;;;;;;22.13;9.43;;;;;;;;;;5045802;28;20040;-70
2022/02/14 06:23:37;;;;;;;16.38;8.02;;;;;;;;;;5045561;28;20095;-70
2022/02/14 06:26:07;;;;;;;18.10;8.90;;;;;;;;;;5045622;28;20068;-70
2022/02/14 06:28:38;;;;;;;18.10;9.50;;;;;;;;;;5046030;28;20044;-70
2022/02/14 06:31:11;;;;;;;11.73;5.75;;;;;;;;;;5027490;28;20037;-70
2022/02/14 06:33:37;;;;;;;13.50;7.00;;;;;;;;;;5045102;28;20060;-70
2022/02/14 06:36:08;;;;;;;20.52;10.13;;;;;;;;;;5045536;28;20040;-71
2022/02/14 06:38:36;;;;;;;22.10;8.15;;;;;;;;;;5045080;28;20055;-70
2022/02/14 06:41:02;;;;;;;22.30;8.80;;;;;;;;;;5045755;28;20064;-70
2022/02/14 06:43:30;;;;;;;18.55;8.43;;;;;;;;;;5027599;28;20092;-71
2022/02/14 06:45:59;;;;;;;18.10;8.98;;;;;;;;;;5045191;28;20066;-70
2022/02/14 06:48:24;;;;;;;18.77;8.52;;;;;;;;;;5045457;28;20029;-70
2022/02/14 06:50:50;;;;;;;18.23;9.43;;;;;;;;;;5043533;28;20033;-70
2022/02/14 06:53:20;;;;;;;20.50;8.95;;;;;;;;;;5060540;28;20082;-70
2022/02/14 06:55:49;;;;;;;19.55;9.30;;;;;;;;;;5044899;28;20025;-70
2022/02/14 06:58:20;;;;;;;16.90;8.38;;;;;;;;;;5045135;28;20048;-70
2022/02/14 07:00:46;;;;;;;22.00;8.68;;;;;;;;;;5059617;28;20021;-70
2022/02/14 07:03:12;;;;;;;19.15;8.80;;;;;;;;;;5044127;28;20039;-71
2022/02/14 07:05:38;;;;;;;14.52;8.10;;;;;;;;;;5026966;28;20029;-70
2022/02/14 07:08:07;;;;;;;17.33;9.18;;;;;;;;;;5044972;28;20034;-70
2022/02/14 07:10:32;;;;;;;18.48;8.60;;;;;;;;;;5044366;28;20037;-70
2022/02/14 07:12:58;;;;;;;16.67;6.65;;;;;;;;;;5044649;28;20044;-70
2022/02/14 07:15:23;;;;;;;9.95;5.55;;;;;;;;;;5026832;28;20044;-70
2022/02/14 07:17:50;;;;;;;11.52;6.70;;;;;;;;;;5044906;28;20025;-71
2022/02/14 07:20:16;;;;;;;13.68;6.88;;;;;;;;;;5059720;28;20382;-70
2022/02/14 07:22:42;;;;;;;16.27;8.30;;;;;;;;;;5026976;28;20052;-70
2022/02/14 07:25:08;;;;;;;19.60;7.40;;;;;;;;;;5026335;28;20037;-70
2022/02/14 07:27:36;;;;;;;17.92;7.68;;;;;;;;;;5044440;28;20041;-70
2022/02/14 07:30:15;;;;;;;16.90;7.50;;;;;;;;;;5044475;28;20041;-70
2022/02/14 07:32:46;;;;;;;17.77;7.43;;;;;;;;;;5044583;28;20025;-70
2022/02/14 07:35:13;;;;;;;14.63;8.23;;;;;;;;;;5044397;28;20035;-70
2022/02/14 07:37:44;;;;;;;14.20;7.70;;;;;;;;;;5044564;28;20273;-70
2022/02/14 07:40:11;;;;;;;16.08;8.18;;;;;;;;;;5026682;28;20372;-70
2022/02/14 07:42:37;;;;;;;18.50;7.85;;;;;;;;;;5044100;28;20033;-70
2022/02/14 07:45:04;;;;;;;16.17;7.88;;;;;;;;;;5043812;28;20176;-70
2022/02/14 07:47:29;;;;;;;10.98;5.18;;;;;;;;;;5026334;28;20033;-70
2022/02/14 07:49:55;;;;;;;14.40;7.57;;;;;;;;;;5044055;28;20049;-70
2022/02/14 07:52:21;;;;;;;15.43;7.35;;;;;;;;;;5043867;28;20021;-70
2022/02/14 07:54:46;;;;;;;14.95;6.55;;;;;;;;;;5026301;28;20029;-70
2022/02/14 07:57:17;;;;;;;15.65;7.80;;;;;;;;;;5044129;28;20045;-70
2022/02/14 07:59:48;;;;;;;15.70;8.13;;;;;;;;;;5043940;28;20059;-70
2022/02/14 08:02:16;;;;;;;16.27;7.20;;;;;;;;;;5025703;28;20072;-70
2022/02/14 08:04:46;;;;;;;15.95;6.68;;;;;;;;;;5025753;28;20033;-71
2022/02/14 08:07:11;;;;;;;12.73;6.22;;;;;;;;;;5025163;28;20060;-70
2022/02/14 08:09:37;;;;;;;14.82;6.90;;;;;;;;;;5043145;28;20477;-70
2022/02/14 08:12:06;;;;;;;13.52;5.80;;;;;;;;;;5044097;28;20032;-71
2022/02/14 08:14:32;;;;;;;11.35;6.60;;;;;;;;;;5024522;28;20036;-70
2022/02/14 08:16:57;;;;;;;18.35;7.32;;;;;;;;;;5043825;28;20049;-70
2022/02/14 08:19:23;;;;;;;16.33;6.68;;;;;;;;;;5043902;28;20037;-70
2022/02/14 08:21:48;;;;;;;12.00;6.28;;;;;;;;;;5044193;28;20036;-70
2022/02/14 08:24:14;;;;;;;15.70;6.55;;;;;;;;;;5043813;28;20029;-70
2022/02/14 08:26:39;;;;;;;11.95;6.32;;;;;;;;;;5044106;28;20428;-70
2022/02/14 08:29:05;;;;;;;8.93;5.10;;;;;;;;;;5043551;28;20045;-70
2022/02/14 08:31:30;;;;;;;8.40;4.00;;;;;;;;;;5043762;28;20029;-70
2022/02/14 08:33:59;;;;;;;14.85;6.03;;;;;;;;;;5043288;28;20029;-70
2022/02/14 08:36:28;;;;;;;14.10;6.80;;;;;;;;;;5025676;28;20014;-70
2022/02/14 08:38:54;;;;;;;13.93;6.72;;;;;;;;;;5043013;28;20053;-70
2022/02/14 08:41:20;;;;;;;14.88;6.22;;;;;;;;;;5043639;28;20057;-70
2022/02/14 08:43:48;;;;;;;12.98;5.90;;;;;;;;;;5043511;28;20040;-70
2022/02/14 08:46:21;;;;;;;10.27;4.57;;;;;;;;;;5025737;28;20380;-70
2022/02/14 08:48:51;;;;;;;13.90;4.63;;;;;;;;;;5043663;28;20030;-70
2022/02/14 08:51:18;;;;;;;12.05;5.90;;;;;;;;;;5043496;28;20044;-70
2022/02/14 08:53:44;;;;;;;13.27;6.57;;;;;;;;;;5043362;28;20029;-70
2022/02/14 08:56:10;;;;;;;12.57;6.07;;;;;;;;;;5025770;28;20029;-71
2022/02/14 08:58:39;;;;;;;12.38;5.57;;;;;;;;;;5043350;28;20034;-70
2022/02/14 09:01:11;;;;;;;10.25;5.80;;;;;;;;;;5043222;28;20025;-70
2022/02/14 09:03:39;;;;;;;16.13;6.07;;;;;;;;;;5025001;28;20132;-69
2022/02/14 09:06:09;;;;;;;12.02;6.20;;;;;;;;;;5025433;28;20116;-70
2022/02/14 09:08:35;;;;;;;11.50;6.03;;;;;;;;;;5025203;28;20030;-70
2022/02/14 09:11:07;;;;;;;10.68;6.00;;;;;;;;;;5025056;28;20125;-71
2022/02/14 09:13:36;;;;;;;11.98;6.60;;;;;;;;;;5042298;28;20029;-70
2022/02/14 09:16:13;;;;;;;8.27;4.70;;;;;;;;;;5025377;28;20040;-70
2022/02/14 09:18:38;;;;;;;8.63;4.45;;;;;;;;;;5042810;28;20025;-70
2022/02/14 09:21:15;;;;;;;14.65;6.03;;;;;;;;;;5042782;28;20026;-70
2022/02/14 09:23:45;;;;;;;12.45;5.85;;;;;;;;;;5042803;28;20033;-70
2022/02/14 09:26:14;;;;;;;15.13;5.85;;;;;;;;;;5043387;28;20044;-70
2022/02/14 09:28:42;;;;;;;11.15;5.45;;;;;;;;;;5042822;28;20033;-70
2022/02/14 09:31:07;;;;;;;12.98;5.40;;;;;;;;;;5043042;28;20487;-71
2022/02/14 09:33:33;;;;;;;10.88;5.35;;;;;;;;;;5042810;28;20037;-70
2022/02/14 09:36:03;;;;;;;8.93;3.67;;;;;;;;;;5024761;28;20033;-70
2022/02/14 09:38:29;;;;;;;12.63;3.55;;;;;;;;;;5058163;28;20049;-70
2022/02/14 09:40:54;;;;;;;13.02;6.35;;;;;;;;;;5042900;28;20061;-70
2022/02/14 09:43:20;;;;;;;10.50;5.20;;;;;;;;;;5025264;28;20040;-70
2022/02/14 09:45:49;;;;;;;17.05;6.78;;;;;;;;;;5024881;28;20025;-70
2022/02/14 09:48:15;;;;;;;15.60;5.50;;;;;;;;;;5025174;28;20079;-70
2022/02/14 09:50:44;;;;;;;10.93;4.43;;;;;;;;;;5024969;28;20472;-70
2022/02/14 09:53:14;;;;;;;9.80;4.53;;;;;;;;;;5025206;28;20021;-70
2022/02/14 09:55:40;;;;;;;9.63;4.68;;;;;;;;;;5025040;28;20144;-70
2022/02/14 09:58:07;;;;;;;11.02;5.93;;;;;;;;;;5042984;28;20505;-70
2022/02/14 10:00:33;;;;;;;9.60;5.15;;;;;;;;;;5042746;28;20093;-70
2022/02/14 10:03:18;;;;;;;9.48;4.57;;;;;;;;;;5042519;28;20029;-70
2022/02/14 10:05:46;;;;;;;6.75;3.67;;;;;;;;;;5042454;28;20035;-70
2022/02/14 10:08:20;;;;;;;9.38;4.88;;;;;;;;;;5024994;28;20282;-70
2022/02/14 10:10:46;;;;;;;13.75;5.10;;;;;;;;;;5042574;28;20029;-71
2022/02/14 10:13:33;;;;;;;12.10;5.65;;;;;;;;;;5042753;28;20060;-69
2022/02/14 10:16:09;;;;;;;11.88;6.20;;;;;;;;;;5024504;28;20029;-70
2022/02/14 10:18:36;;;;;;;10.88;5.63;;;;;;;;;;5042338;28;20036;-70
2022/02/14 10:21:19;;;;;;;12.45;5.45;;;;;;;;;;5024590;28;20029;-71
2022/02/14 10:24:07;;;;;;;11.85;4.63;;;;;;;;;;5042364;28;20055;-70
2022/02/14 10:27:01;;;;;;;11.25;5.13;;;;;;;;;;5046282;28;20052;-70
2022/02/14 10:29:30;;;;;;;;;;;;;;;;;;5026251;28;20037;-70
2022/02/14 10:32:07;;;;;;;9.85;4.75;;;;;;;;;;5046116;28;19963;-70
2022/02/14 10:34:34;;;;;;;8.52;4.07;;;;;;;;;;5045927;28;20037;-70
2022/02/14 10:37:00;;;;;;;8.65;4.88;;;;;;;;;;5045748;28;20490;-70
2022/02/14 10:39:27;;;;;;;11.13;5.38;;;;;;;;;;5045174;28;20029;-71
2022/02/14 10:42:07;;;;;;;11.30;4.90;;;;;;;;;;5028025;28;20029;-70
2022/02/14 10:47:51;;;;;;;9.45;4.30;;;;;;;;;;5045573;28;20044;-70
2022/02/14 10:50:28;;;;;;;6.60;3.63;;;;;;;;;;5044614;28;20055;-71
2022/02/14 10:52:59;;;;;;;9.20;4.68;;;;;;;;;;5045694;28;20048;-71
2022/02/14 10:55:39;;;;;;;12.75;4.72;;;;;;;;;;5045449;28;20111;-71
2022/02/14 10:58:04;;;;;;;10.15;4.90;;;;;;;;;;5045752;28;20029;-70
2022/02/14 11:00:32;;;;;;;13.43;5.60;;;;;;;;;;5045620;28;20409;-70
2022/02/14 11:03:06;;;;;;;12.48;5.18;;;;;;;;;;5045341;28;20034;-71
2022/02/14 11:05:33;;;;;;;8.95;4.45;;;;;;;;;;5045393;28;20394;-71
2022/02/14 11:08:02;;;;;;;8.43;4.47;;;;;;;;;;5045112;28;20037;-70
2022/02/14 11:10:28;;;;;;;8.75;4.47;;;;;;;;;;5045085;28;20101;-70
2022/02/14 11:12:58;;;;;;;9.80;4.63;;;;;;;;;;5027235;28;20091;-70
2022/02/14 11:15:26;;;;;;;9.65;4.03;;;;;;;;;;5027330;28;20049;-71
2022/02/14 11:18:04;;;;;;;13.57;4.95;;;;;;;;;;5027137;28;20041;-70
2022/02/14 11:20:29;;;;;;;10.98;4.50;;;;;;;;;;5045018;28;20109;-70
2022/02/14 11:23:03;;;;;;;7.70;4.50;;;;;;;;;;5044957;28;20029;-71
2022/02/14 11:25:43;;;;;;;4.72;3.03;;;;;;;;;;5044764;28;20347;-71
2022/02/14 11:28:09;;;;;;;14.02;4.75;;;;;;;;;;5027413;28;20030;-70
2022/02/14 11:30:39;;;;;;;10.05;4.95;;;;;;;;;;5044863;28;20073;-71
2022/02/14 11:33:19;;;;;;;12.35;5.38;;;;;;;;;;5027421;28;20084;-71
2022/02/14 11:36:02;;;;;;;11.77;5.07;;;;;;;;;;5044505;28;20034;-70
2022/02/14 11:38:48;;;;;;;10.93;4.60;;;;;;;;;;5044462;28;20053;-70
2022/02/14 11:41:39;;;;;;;11.18;5.10;;;;;;;;;;5044863;28;20505;-71
2022/02/14 11:46:42;;;;;;;8.63;4.65;;;;;;;;;;5044292;28;20064;-70
2022/02/14 11:49:08;;;;;;;8.45;3.85;;;;;;;;;;5044379;28;20082;-70
2022/02/14 11:51:55;;;;;;;10.38;4.45;;;;;;;;;;5044787;28;20033;-70
2022/02/14 11:54:38;;;;;;;13.63;4.00;;;;;;;;;;5044450;28;20029;-70
2022/02/14 11:57:10;;;;;;;13.00;5.15;;;;;;;;;;5044631;28;20056;-70
2022/02/14 11:59:38;;;;;;;9.95;3.88;;;;;;;;;;5026377;28;20033;-71
2022/02/14 12:02:05;;;;;;;12.05;4.18;;;;;;;;;;5044416;28;20037;-70
2022/02/14 12:04:36;;;;;;;15.57;5.55;;;;;;;;;;5026040;28;20089;-71
2022/02/14 12:07:20;;;;;;;13.77;5.43;;;;;;;;;;5044387;28;20081;-71
2022/02/14 12:10:16;;;;;;;8.50;4.97;;;;;;;;;;5044261;28;20057;-71
2022/02/14 12:12:58;;;;;;;10.98;3.13;;;;;;;;;;5044061;28;20060;-71
2022/02/14 12:20:41;;;;;;;10.23;5.18;;;;;;;;;;5043686;28;20060;-71
2022/02/14 12:23:13;;;;;;;12.63;4.43;;;;;;;;;;5044115;28;20033;-71
2022/02/14 12:25:49;;;;;;;11.45;4.45;;;;;;;;;;5043814;28;20112;-71
2022/02/14 12:28:14;;;;;;;6.47;3.05;;;;;;;;;;5043804;28;20022;-71
2022/02/14 12:30:41;;;;;;;7.35;3.85;;;;;;;;;;5043867;28;20025;-71
2022/02/14 12:33:08;;;;;;;9.77;4.07;;;;;;;;;;5044043;28;20098;-71
2022/02/14 12:35:36;;;;;;;9.38;4.78;;;;;;;;;;5025850;28;20034;-71
2022/02/14 12:38:03;;;;;;;11.60;3.67;;;;;;;;;;5043590;28;20060;-71
2022/02/14 12:40:49;;;;;;;7.75;3.75;;;;;;;;;;5043747;28;20080;-71
2022/02/14 12:43:21;;;;;;;7.43;3.60;;;;;;;;;;5043770;28;20449;-70
2022/02/14 12:45:53;;;;;;;10.32;4.35;;;;;;;;;;5025684;28;20030;-71
2022/02/14 12:48:33;;;;;;;12.13;4.72;;;;;;;;;;5043700;28;20026;-71
2022/02/14 12:51:01;;;;;;;10.82;4.20;;;;;;;;;;5043886;28;20037;-71
2022/02/14 12:53:27;;;;;;;11.05;3.03;;;;;;;;;;5043591;28;20060;-71
2022/02/14 12:55:57;;;;;;;12.65;4.93;;;;;;;;;;5043491;28;20442;-71
2022/02/14 12:58:24;;;;;;;9.45;4.82;;;;;;;;;;5043403;28;20044;-71
2022/02/14 13:00:50;;;;;;;12.68;4.85;;;;;;;;;;5043284;28;20026;-71
2022/02/14 13:03:17;;;;;;;11.30;4.10;;;;;;;;;;5043534;28;20040;-71
2022/02/14 13:05:50;;;;;;;8.82;4.38;;;;;;;;;;5043351;28;20056;-71
2022/02/14 13:08:20;;;;;;;;;;;;;;;;;;5043769;28;20033;-71
2022/02/14 13:10:47;;;;;;;11.27;4.53;;;;;;;;;;5043125;28;19924;-71
2022/02/14 13:13:29;;;;;;;7.65;4.57;;;;;;;;;;5043455;28;20033;-71
2022/02/14 13:15:57;;;;;;;6.22;2.72;;;;;;;;;;5043099;28;20034;-71
2022/02/14 13:18:44;;;;;;;6.32;2.45;;;;;;;;;;5042815;28;20029;-71
2022/02/14 13:21:11;;;;;;;8.50;4.22;;;;;;;;;;5024650;28;20049;-72
2022/02/14 13:23:37;;;;;;;7.95;4.47;;;;;;;;;;5043111;28;20116;-71
2022/02/14 13:26:07;;;;;;;7.03;2.90;;;;;;;;;;5043202;28;20076;-71
2022/02/14 13:28:40;;;;;;;9.80;4.28;;;;;;;;;;5043268;28;20029;-70
2022/02/14 13:31:06;;;;;;;7.67;3.50;;;;;;;;;;5043512;28;20029;-71
2022/02/14 13:33:34;;;;;;;8.07;3.85;;;;;;;;;;5043283;28;20266;-71
2022/02/14 13:35:59;;;;;;;9.38;4.35;;;;;;;;;;5025279;28;20044;-71
2022/02/14 13:38:35;;;;;;;8.30;4.35;;;;;;;;;;5043069;28;20049;-71
2022/02/14 13:41:03;;;;;;;9.35;4.28;;;;;;;;;;5043042;28;20056;-71
2022/02/14 13:43:41;;;;;;;6.90;3.08;;;;;;;;;;5042470;28;20055;-70
2022/02/14 13:46:11;;;;;;;7.35;3.85;;;;;;;;;;5043193;28;20057;-72
2022/02/14 13:48:50;;;;;;;8.23;3.72;;;;;;;;;;5043212;28;20099;-71
2022/02/14 13:51:23;;;;;;;9.30;4.53;;;;;;;;;;5043268;28;20037;-70
2022/02/14 13:54:11;;;;;;;11.32;4.18;;;;;;;;;;5025009;28;20049;-71
2022/02/14 13:56:45;;;;;;;4.90;2.88;;;;;;;;;;5043239;28;20022;-70
2022/02/14 13:59:16;;;;;;;;;;;;;;;;;;5044157;28;20461;-71
2022/02/14 14:01:45;;;;;;;9.18;3.70;;;;;;;;;;5062141;28;19909;-70
2022/02/14 14:04:24;;;;;;;15.27;4.15;;;;;;;;;;5028426;28;20025;-70
2022/02/14 14:07:11;;;;;;;3.85;2.40;;;;;;;;;;5046787;28;20040;-70
2022/02/14 14:09:51;;;;;;;13.30;4.47;;;;;;;;;;5046498;28;20060;-70
2022/02/14 14:12:17;;;;;;;8.00;3.60;;;;;;;;;;5028815;28;20037;-70
2022/02/14 14:14:45;;;;;;;8.95;4.15;;;;;;;;;;5061730;28;20372;-70
2022/02/14 14:17:13;;;;;;;8.15;4.38;;;;;;;;;;5027840;28;20120;-70
2022/02/14 14:19:50;;;;;;;10.27;4.13;;;;;;;;;;5045251;28;20037;-70
2022/02/14 14:22:19;;;;;;;7.82;3.90;;;;;;;;;;5026770;28;20036;-70
2022/02/14 14:24:58;;;;;;;8.85;3.95;;;;;;;;;;5026321;28;20486;-70
2022/02/14 14:27:25;;;;;;;11.20;4.18;;;;;;;;;;5044690;28;20476;-71
2022/02/14 14:29:53;;;;;;;12.27;5.55;;;;;;;;;;5044251;28;20064;-70
2022/02/14 14:32:23;;;;;;;15.07;4.95;;;;;;;;;;5026353;28;20064;-70
2022/02/14 14:34:49;;;;;;;11.80;4.07;;;;;;;;;;5045476;28;20120;-70
2022/02/14 14:37:17;;;;;;;10.05;2.70;;;;;;;;;;5045845;28;20040;-70
2022/02/14 14:39:43;;;;;;;8.30;4.22;;;;;;;;;;5027624;28;20449;-70
2022/02/14 14:42:12;;;;;;;8.40;3.58;;;;;;;;;;5027916;28;20025;-70
2022/02/14 14:44:39;;;;;;;8.60;4.22;;;;;;;;;;5045737;28;20030;-70
2022/02/14 14:47:04;;;;;;;12.77;4.80;;;;;;;;;;5045701;28;20052;-70
2022/02/14 14:49:30;;;;;;;8.13;3.20;;;;;;;;;;5045677;28;20033;-70
2022/02/14 14:51:55;;;;;;;13.45;4.47;;;;;;;;;;5045879;28;20497;-71